Аэропорт: Николаев. Николаев

ICAO: UKON

METAR:
2021-01-19 11:00:00
UKON 191100Z 29003MPS 250V330 CAVOK M12/M16 Q1021 R04/390150 NOSIG
METAR:
2021-01-19 08:02:00
TAF UKON 190802Z 1909/1918 30003MPS 6000 SCT004 BKN010 SCT020CB TEMPO 1909/1918 2100 -SHSN BR SCT003 BKN007 SCT015CB